Startpagina
METAR-TAF:

METAR-TAF

Vliegvelden :

Productieplatform

J6-a, Nederland

breedte: 53-49-27N, lengte: 2-56-43E, hoogte: 34 m

Actueel weer

Dit bericht is 39 minuten geleden gemaakt, om 22:25 UTC
Wind 14 kt uit het zuidzuidoosten
Temperatuur 13°C
Vochtigheid 82%
Druk 1025 hPa
Zicht 10 km of meer

METAR: EHJA 122225Z AUTO 16014KT 9999 NCD 13/10 Q1025

Tijdstip: 01:04 (23:04 UTC)


TAF: ontbreekt

Waarnemingen en weersverwachtingen van meer dan 4000 vliegvelden (METAR en TAF).

De beschikbare stations zijn de gele en rode punten op de kaart.

Ga met uw muis naar het station om de naam te zien.

Klik dan om waarnemingen en weersverwachtingen te zien.

kaart wijzigen: klik op de groene knoppen met een zwart kruis om in te zoomen, op de groene knop met een streepje om uit te zoomen of op de groene pijlen voor aangrenzende kaarten.


METAR-TAF: